sensor_id;sensor_type;location;lat;lon;timestamp;P1;durP1;ratioP1;P2;durP2;ratioP2
1925;SDS011;964;42.606;23.588;2023-06-10T00:01:50;7.23;;;6.53;;
1925;SDS011;964;42.606;23.588;2023-06-10T00:04:20;7.60;;;6.80;;
1925;SDS011;964;42.606;23.588;2023-06-10T00:06:47;7.47;;;6.60;;
1925;SDS011;964;42.606;23.588;2023-06-10T00:09:16;8.23;;;6.90;;
1925;SDS011;964;42.606;23.588;2023-06-10T00:11:43;11.90;;;6.17;;
1925;SDS011;964;42.606;23.588;2023-06-10T00:14:10;6.20;;;5.70;;
1925;SDS011;964;42.606;23.588;2023-06-10T00:16:37;8.03;;;6.70;;
1925;SDS011;964;42.606;23.588;2023-06-10T00:19:04;7.70;;;6.07;;
1925;SDS011;964;42.606;23.588;2023-06-10T00:21:33;7.07;;;6.07;;
1925;SDS011;964;42.606;23.588;2023-06-10T00:24:02;8.83;;;8.00;;
1925;SDS011;964;42.606;23.588;2023-06-10T00:26:34;9.07;;;8.10;;
1925;SDS011;964;42.606;23.588;2023-06-10T00:29:01;12.70;;;8.73;;
1925;SDS011;964;42.606;23.588;2023-06-10T00:31:28;9.50;;;7.70;;
1925;SDS011;964;42.606;23.588;2023-06-10T00:33:55;8.50;;;7.63;;
1925;SDS011;964;42.606;23.588;2023-06-10T00:36:23;10.30;;;7.67;;
1925;SDS011;964;42.606;23.588;2023-06-10T00:38:50;9.73;;;7.80;;
1925;SDS011;964;42.606;23.588;2023-06-10T00:41:17;8.93;;;7.03;;
1925;SDS011;964;42.606;23.588;2023-06-10T00:43:45;9.83;;;7.07;;
1925;SDS011;964;42.606;23.588;2023-06-10T00:46:12;8.10;;;7.30;;
1925;SDS011;964;42.606;23.588;2023-06-10T00:48:40;7.80;;;5.97;;
1925;SDS011;964;42.606;23.588;2023-06-10T00:51:08;6.70;;;6.00;;
1925;SDS011;964;42.606;23.588;2023-06-10T00:53:35;12.57;;;6.10;;
1925;SDS011;964;42.606;23.588;2023-06-10T00:56:03;7.23;;;6.53;;
1925;SDS011;964;42.606;23.588;2023-06-10T00:58:30;8.27;;;6.70;;
1925;SDS011;964;42.606;23.588;2023-06-10T01:00:59;7.73;;;6.47;;
1925;SDS011;964;42.606;23.588;2023-06-10T01:03:27;9.33;;;7.37;;
1925;SDS011;964;42.606;23.588;2023-06-10T01:05:56;8.17;;;7.33;;
1925;SDS011;964;42.606;23.588;2023-06-10T01:08:31;10.67;;;6.90;;
1925;SDS011;964;42.606;23.588;2023-06-10T01:11:04;8.20;;;6.80;;
1925;SDS011;964;42.606;23.588;2023-06-10T01:13:35;10.87;;;7.23;;
1925;SDS011;964;42.606;23.588;2023-06-10T01:16:05;7.83;;;7.03;;
1925;SDS011;964;42.606;23.588;2023-06-10T01:18:32;8.27;;;7.20;;
1925;SDS011;964;42.606;23.588;2023-06-10T01:20:59;8.10;;;7.30;;
1925;SDS011;964;42.606;23.588;2023-06-10T01:23:27;7.90;;;6.87;;
1925;SDS011;964;42.606;23.588;2023-06-10T01:25:55;7.73;;;7.00;;
1925;SDS011;964;42.606;23.588;2023-06-10T01:28:27;8.33;;;7.53;;
1925;SDS011;964;42.606;23.588;2023-06-10T01:31:01;10.70;;;7.17;;
1925;SDS011;964;42.606;23.588;2023-06-10T01:33:37;7.87;;;7.07;;
1925;SDS011;964;42.606;23.588;2023-06-10T01:36:08;11.80;;;8.30;;
1925;SDS011;964;42.606;23.588;2023-06-10T01:38:39;11.47;;;7.50;;
1925;SDS011;964;42.606;23.588;2023-06-10T01:41:08;8.10;;;7.30;;
1925;SDS011;964;42.606;23.588;2023-06-10T01:43:37;10.97;;;7.90;;
1925;SDS011;964;42.606;23.588;2023-06-10T01:46:04;7.47;;;6.70;;
1925;SDS011;964;42.606;23.588;2023-06-10T01:48:32;8.37;;;7.47;;
1925;SDS011;964;42.606;23.588;2023-06-10T01:50:59;8.10;;;6.50;;
1925;SDS011;964;42.606;23.588;2023-06-10T01:53:25;9.77;;;7.63;;
1925;SDS011;964;42.606;23.588;2023-06-10T01:55:54;8.90;;;7.50;;
1925;SDS011;964;42.606;23.588;2023-06-10T01:58:21;8.40;;;7.57;;
1925;SDS011;964;42.606;23.588;2023-06-10T02:00:48;10.00;;;8.20;;
1925;SDS011;964;42.606;23.588;2023-06-10T02:03:14;9.30;;;7.70;;
1925;SDS011;964;42.606;23.588;2023-06-10T02:05:41;9.43;;;7.80;;
1925;SDS011;964;42.606;23.588;2023-06-10T02:08:08;15.50;;;8.37;;
1925;SDS011;964;42.606;23.588;2023-06-10T02:10:35;9.57;;;8.10;;
1925;SDS011;964;42.606;23.588;2023-06-10T02:13:03;10.33;;;8.20;;
1925;SDS011;964;42.606;23.588;2023-06-10T02:15:30;11.03;;;8.43;;
1925;SDS011;964;42.606;23.588;2023-06-10T02:17:57;12.80;;;9.57;;
1925;SDS011;964;42.606;23.588;2023-06-10T02:20:25;15.33;;;9.37;;
1925;SDS011;964;42.606;23.588;2023-06-10T02:22:52;11.60;;;9.30;;
1925;SDS011;964;42.606;23.588;2023-06-10T02:25:19;11.83;;;8.70;;
1925;SDS011;964;42.606;23.588;2023-06-10T02:27:46;10.47;;;8.10;;
1925;SDS011;964;42.606;23.588;2023-06-10T02:30:14;9.87;;;8.50;;
1925;SDS011;964;42.606;23.588;2023-06-10T02:32:41;10.17;;;8.43;;
1925;SDS011;964;42.606;23.588;2023-06-10T02:35:13;12.00;;;8.80;;
1925;SDS011;964;42.606;23.588;2023-06-10T02:37:40;9.63;;;8.60;;
1925;SDS011;964;42.606;23.588;2023-06-10T02:40:07;10.13;;;8.20;;
1925;SDS011;964;42.606;23.588;2023-06-10T02:42:35;10.80;;;9.17;;
1925;SDS011;964;42.606;23.588;2023-06-10T02:45:02;9.40;;;7.20;;
1925;SDS011;964;42.606;23.588;2023-06-10T02:47:30;16.80;;;8.67;;
1925;SDS011;964;42.606;23.588;2023-06-10T02:49:57;11.20;;;7.87;;
1925;SDS011;964;42.606;23.588;2023-06-10T02:52:24;13.43;;;8.90;;
1925;SDS011;964;42.606;23.588;2023-06-10T02:54:51;9.67;;;8.17;;
1925;SDS011;964;42.606;23.588;2023-06-10T02:57:18;10.00;;;8.90;;
1925;SDS011;964;42.606;23.588;2023-06-10T02:59:44;11.87;;;8.57;;
1925;SDS011;964;42.606;23.588;2023-06-10T03:02:11;14.83;;;8.90;;
1925;SDS011;964;42.606;23.588;2023-06-10T03:04:40;12.47;;;9.03;;
1925;SDS011;964;42.606;23.588;2023-06-10T03:07:08;10.40;;;8.67;;
1925;SDS011;964;42.606;23.588;2023-06-10T03:09:36;10.77;;;9.27;;
1925;SDS011;964;42.606;23.588;2023-06-10T03:12:03;12.97;;;9.47;;
1925;SDS011;964;42.606;23.588;2023-06-10T03:14:31;10.80;;;9.27;;
1925;SDS011;964;42.606;23.588;2023-06-10T03:16:58;10.13;;;8.53;;
1925;SDS011;964;42.606;23.588;2023-06-10T03:19:25;17.53;;;8.70;;
1925;SDS011;964;42.606;23.588;2023-06-10T03:21:57;13.10;;;8.43;;
1925;SDS011;964;42.606;23.588;2023-06-10T03:24:33;14.47;;;7.77;;
1925;SDS011;964;42.606;23.588;2023-06-10T03:27:00;12.03;;;9.20;;
1925;SDS011;964;42.606;23.588;2023-06-10T03:29:30;8.97;;;7.80;;
1925;SDS011;964;42.606;23.588;2023-06-10T03:31:57;12.20;;;9.90;;
1925;SDS011;964;42.606;23.588;2023-06-10T03:34:24;10.10;;;8.90;;
1925;SDS011;964;42.606;23.588;2023-06-10T03:36:50;12.30;;;8.67;;
1925;SDS011;964;42.606;23.588;2023-06-10T03:39:19;10.40;;;9.20;;
1925;SDS011;964;42.606;23.588;2023-06-10T03:41:45;11.33;;;10.20;;
1925;SDS011;964;42.606;23.588;2023-06-10T03:44:12;14.23;;;8.63;;
1925;SDS011;964;42.606;23.588;2023-06-10T03:46:40;11.23;;;8.63;;
1925;SDS011;964;42.606;23.588;2023-06-10T03:49:06;11.80;;;9.17;;
1925;SDS011;964;42.606;23.588;2023-06-10T03:51:35;9.60;;;8.30;;
1925;SDS011;964;42.606;23.588;2023-06-10T03:54:02;12.90;;;9.03;;
1925;SDS011;964;42.606;23.588;2023-06-10T03:56:30;9.67;;;8.77;;
1925;SDS011;964;42.606;23.588;2023-06-10T03:58:57;14.00;;;8.90;;
1925;SDS011;964;42.606;23.588;2023-06-10T04:01:25;10.67;;;9.63;;
1925;SDS011;964;42.606;23.588;2023-06-10T04:03:52;9.57;;;8.53;;
1925;SDS011;964;42.606;23.588;2023-06-10T04:06:20;10.53;;;8.83;;
1925;SDS011;964;42.606;23.588;2023-06-10T04:08:47;13.87;;;10.30;;
1925;SDS011;964;42.606;23.588;2023-06-10T04:11:16;10.87;;;9.77;;
1925;SDS011;964;42.606;23.588;2023-06-10T04:13:45;10.67;;;9.20;;
1925;SDS011;964;42.606;23.588;2023-06-10T04:16:11;10.67;;;9.57;;
1925;SDS011;964;42.606;23.588;2023-06-10T04:18:38;12.33;;;10.40;;
1925;SDS011;964;42.606;23.588;2023-06-10T04:21:07;11.77;;;10.20;;
1925;SDS011;964;42.606;23.588;2023-06-10T04:23:34;14.13;;;10.10;;
1925;SDS011;964;42.606;23.588;2023-06-10T04:26:01;11.27;;;9.30;;
1925;SDS011;964;42.606;23.588;2023-06-10T04:28:28;12.50;;;9.50;;
1925;SDS011;964;42.606;23.588;2023-06-10T04:30:56;10.40;;;9.30;;
1925;SDS011;964;42.606;23.588;2023-06-10T04:33:24;13.30;;;10.33;;
1925;SDS011;964;42.606;23.588;2023-06-10T04:35:50;11.57;;;10.10;;
1925;SDS011;964;42.606;23.588;2023-06-10T04:38:17;14.97;;;10.47;;
1925;SDS011;964;42.606;23.588;2023-06-10T04:40:44;12.43;;;9.93;;
1925;SDS011;964;42.606;23.588;2023-06-10T04:43:11;13.57;;;11.30;;
1925;SDS011;964;42.606;23.588;2023-06-10T04:45:38;11.70;;;10.33;;
1925;SDS011;964;42.606;23.588;2023-06-10T04:48:06;12.30;;;10.53;;
1925;SDS011;964;42.606;23.588;2023-06-10T04:50:33;16.00;;;11.07;;
1925;SDS011;964;42.606;23.588;2023-06-10T04:53:00;11.60;;;10.40;;
1925;SDS011;964;42.606;23.588;2023-06-10T04:55:27;13.07;;;11.33;;
1925;SDS011;964;42.606;23.588;2023-06-10T04:57:54;12.83;;;11.20;;
1925;SDS011;964;42.606;23.588;2023-06-10T05:00:22;12.83;;;10.10;;
1925;SDS011;964;42.606;23.588;2023-06-10T05:02:49;10.53;;;9.47;;
1925;SDS011;964;42.606;23.588;2023-06-10T05:05:18;12.83;;;11.17;;
1925;SDS011;964;42.606;23.588;2023-06-10T05:07:45;15.30;;;11.07;;
1925;SDS011;964;42.606;23.588;2023-06-10T05:10:12;11.83;;;10.63;;
1925;SDS011;964;42.606;23.588;2023-06-10T05:12:39;11.23;;;9.70;;
1925;SDS011;964;42.606;23.588;2023-06-10T05:15:07;11.53;;;10.33;;
1925;SDS011;964;42.606;23.588;2023-06-10T05:17:34;14.43;;;11.07;;
1925;SDS011;964;42.606;23.588;2023-06-10T05:20:01;13.33;;;11.77;;
1925;SDS011;964;42.606;23.588;2023-06-10T05:22:30;16.37;;;10.80;;
1925;SDS011;964;42.606;23.588;2023-06-10T05:24:57;15.50;;;10.90;;
1925;SDS011;964;42.606;23.588;2023-06-10T05:27:23;12.13;;;10.77;;
1925;SDS011;964;42.606;23.588;2023-06-10T05:29:50;14.10;;;10.60;;
1925;SDS011;964;42.606;23.588;2023-06-10T05:32:17;15.20;;;11.03;;
1925;SDS011;964;42.606;23.588;2023-06-10T05:34:44;13.20;;;10.30;;
1925;SDS011;964;42.606;23.588;2023-06-10T05:37:12;11.90;;;10.37;;
1925;SDS011;964;42.606;23.588;2023-06-10T05:39:40;11.73;;;10.50;;
1925;SDS011;964;42.606;23.588;2023-06-10T05:42:07;10.63;;;9.53;;
1925;SDS011;964;42.606;23.588;2023-06-10T05:44:35;15.93;;;11.20;;
1925;SDS011;964;42.606;23.588;2023-06-10T05:47:02;11.50;;;10.20;;
1925;SDS011;964;42.606;23.588;2023-06-10T05:49:29;11.73;;;10.03;;
1925;SDS011;964;42.606;23.588;2023-06-10T05:51:56;12.17;;;10.90;;
1925;SDS011;964;42.606;23.588;2023-06-10T05:54:24;12.83;;;10.63;;
1925;SDS011;964;42.606;23.588;2023-06-10T05:56:53;13.20;;;10.47;;
1925;SDS011;964;42.606;23.588;2023-06-10T05:59:20;13.07;;;10.93;;
1925;SDS011;964;42.606;23.588;2023-06-10T06:01:51;13.67;;;11.17;;
1925;SDS011;964;42.606;23.588;2023-06-10T06:04:18;12.40;;;10.90;;
1925;SDS011;964;42.606;23.588;2023-06-10T06:06:45;11.50;;;10.40;;
1925;SDS011;964;42.606;23.588;2023-06-10T06:09:12;13.20;;;11.80;;
1925;SDS011;964;42.606;23.588;2023-06-10T06:11:39;16.43;;;11.47;;
1925;SDS011;964;42.606;23.588;2023-06-10T06:14:07;14.37;;;11.50;;
1925;SDS011;964;42.606;23.588;2023-06-10T06:16:34;12.40;;;10.40;;
1925;SDS011;964;42.606;23.588;2023-06-10T06:19:00;12.50;;;11.20;;
1925;SDS011;964;42.606;23.588;2023-06-10T06:21:27;14.10;;;11.70;;
1925;SDS011;964;42.606;23.588;2023-06-10T06:23:54;14.90;;;11.50;;
1925;SDS011;964;42.606;23.588;2023-06-10T06:26:21;16.67;;;11.33;;
1925;SDS011;964;42.606;23.588;2023-06-10T06:28:48;12.27;;;11.03;;
1925;SDS011;964;42.606;23.588;2023-06-10T06:31:16;14.80;;;11.60;;
1925;SDS011;964;42.606;23.588;2023-06-10T06:33:43;12.40;;;11.03;;
1925;SDS011;964;42.606;23.588;2023-06-10T06:36:09;13.37;;;12.17;;
1925;SDS011;964;42.606;23.588;2023-06-10T06:38:36;15.43;;;13.03;;
1925;SDS011;964;42.606;23.588;2023-06-10T06:41:03;14.97;;;12.40;;
1925;SDS011;964;42.606;23.588;2023-06-10T06:43:31;14.47;;;12.10;;
1925;SDS011;964;42.606;23.588;2023-06-10T06:45:58;12.73;;;11.50;;
1925;SDS011;964;42.606;23.588;2023-06-10T06:48:26;12.37;;;11.17;;
1925;SDS011;964;42.606;23.588;2023-06-10T06:50:53;12.53;;;11.30;;
1925;SDS011;964;42.606;23.588;2023-06-10T06:53:21;13.93;;;12.53;;
1925;SDS011;964;42.606;23.588;2023-06-10T06:55:48;14.10;;;12.17;;
1925;SDS011;964;42.606;23.588;2023-06-10T06:58:15;15.17;;;11.20;;
1925;SDS011;964;42.606;23.588;2023-06-10T07:00:42;12.23;;;10.93;;
1925;SDS011;964;42.606;23.588;2023-06-10T07:03:09;13.80;;;11.60;;
1925;SDS011;964;42.606;23.588;2023-06-10T07:05:37;13.43;;;10.90;;
1925;SDS011;964;42.606;23.588;2023-06-10T07:08:04;16.70;;;12.00;;
1925;SDS011;964;42.606;23.588;2023-06-10T07:10:32;15.63;;;12.27;;
1925;SDS011;964;42.606;23.588;2023-06-10T07:12:59;14.53;;;11.83;;
1925;SDS011;964;42.606;23.588;2023-06-10T07:15:25;10.90;;;9.80;;
1925;SDS011;964;42.606;23.588;2023-06-10T07:17:52;12.77;;;10.87;;
1925;SDS011;964;42.606;23.588;2023-06-10T07:20:20;13.10;;;10.43;;
1925;SDS011;964;42.606;23.588;2023-06-10T07:22:48;16.73;;;12.00;;
1925;SDS011;964;42.606;23.588;2023-06-10T07:25:15;16.43;;;10.93;;
1925;SDS011;964;42.606;23.588;2023-06-10T07:27:42;13.70;;;12.07;;
1925;SDS011;964;42.606;23.588;2023-06-10T07:30:09;18.07;;;14.07;;
1925;SDS011;964;42.606;23.588;2023-06-10T07:32:36;16.93;;;12.87;;
1925;SDS011;964;42.606;23.588;2023-06-10T07:35:03;13.57;;;11.53;;
1925;SDS011;964;42.606;23.588;2023-06-10T07:37:32;15.60;;;13.07;;
1925;SDS011;964;42.606;23.588;2023-06-10T07:40:00;15.13;;;12.03;;
1925;SDS011;964;42.606;23.588;2023-06-10T07:42:27;13.70;;;12.37;;
1925;SDS011;964;42.606;23.588;2023-06-10T07:44:54;14.70;;;12.40;;
1925;SDS011;964;42.606;23.588;2023-06-10T07:47:20;14.07;;;12.10;;
1925;SDS011;964;42.606;23.588;2023-06-10T07:49:47;13.40;;;12.00;;
1925;SDS011;964;42.606;23.588;2023-06-10T07:52:14;14.60;;;12.90;;
1925;SDS011;964;42.606;23.588;2023-06-10T07:54:41;14.57;;;13.00;;
1925;SDS011;964;42.606;23.588;2023-06-10T07:57:09;17.40;;;12.40;;
1925;SDS011;964;42.606;23.588;2023-06-10T07:59:36;12.83;;;11.47;;
1925;SDS011;964;42.606;23.588;2023-06-10T08:02:02;12.40;;;11.20;;
1925;SDS011;964;42.606;23.588;2023-06-10T08:04:30;14.57;;;13.07;;
1925;SDS011;964;42.606;23.588;2023-06-10T08:06:57;12.80;;;11.50;;
1925;SDS011;964;42.606;23.588;2023-06-10T08:09:24;12.60;;;10.83;;
1925;SDS011;964;42.606;23.588;2023-06-10T08:11:51;14.00;;;10.67;;
1925;SDS011;964;42.606;23.588;2023-06-10T08:14:19;12.93;;;11.70;;
1925;SDS011;964;42.606;23.588;2023-06-10T08:16:46;13.00;;;11.70;;
1925;SDS011;964;42.606;23.588;2023-06-10T08:19:13;10.90;;;8.97;;
1925;SDS011;964;42.606;23.588;2023-06-10T08:21:39;9.73;;;8.83;;
1925;SDS011;964;42.606;23.588;2023-06-10T08:24:06;10.03;;;8.70;;
1925;SDS011;964;42.606;23.588;2023-06-10T08:26:33;10.83;;;9.73;;
1925;SDS011;964;42.606;23.588;2023-06-10T08:29:00;10.90;;;9.30;;
1925;SDS011;964;42.606;23.588;2023-06-10T08:31:28;9.40;;;8.40;;
1925;SDS011;964;42.606;23.588;2023-06-10T08:33:55;10.33;;;9.40;;
1925;SDS011;964;42.606;23.588;2023-06-10T08:36:22;9.87;;;8.80;;
1925;SDS011;964;42.606;23.588;2023-06-10T08:38:49;8.20;;;7.40;;
1925;SDS011;964;42.606;23.588;2023-06-10T08:41:17;8.23;;;6.90;;
1925;SDS011;964;42.606;23.588;2023-06-10T08:43:46;6.53;;;5.87;;
1925;SDS011;964;42.606;23.588;2023-06-10T08:46:31;6.53;;;5.90;;
1925;SDS011;964;42.606;23.588;2023-06-10T08:49:00;8.90;;;5.40;;
1925;SDS011;964;42.606;23.588;2023-06-10T08:51:30;5.43;;;4.93;;
1925;SDS011;964;42.606;23.588;2023-06-10T08:54:01;4.83;;;4.13;;
1925;SDS011;964;42.606;23.588;2023-06-10T08:56:28;5.20;;;4.70;;
1925;SDS011;964;42.606;23.588;2023-06-10T08:58:57;5.13;;;4.10;;
1925;SDS011;964;42.606;23.588;2023-06-10T09:01:24;4.27;;;3.87;;
1925;SDS011;964;42.606;23.588;2023-06-10T09:03:54;4.13;;;3.73;;
1925;SDS011;964;42.606;23.588;2023-06-10T09:06:21;3.97;;;3.67;;
1925;SDS011;964;42.606;23.588;2023-06-10T09:08:48;4.60;;;4.20;;
1925;SDS011;964;42.606;23.588;2023-06-10T09:11:16;5.23;;;4.70;;
1925;SDS011;964;42.606;23.588;2023-06-10T09:13:42;4.80;;;4.30;;
1925;SDS011;964;42.606;23.588;2023-06-10T09:16:09;6.70;;;4.70;;
1925;SDS011;964;42.606;23.588;2023-06-10T09:18:37;5.07;;;4.57;;
1925;SDS011;964;42.606;23.588;2023-06-10T09:21:06;5.40;;;4.40;;
1925;SDS011;964;42.606;23.588;2023-06-10T09:23:33;4.80;;;4.20;;
1925;SDS011;964;42.606;23.588;2023-06-10T09:26:00;5.10;;;4.60;;
1925;SDS011;964;42.606;23.588;2023-06-10T09:28:29;6.40;;;4.97;;
1925;SDS011;964;42.606;23.588;2023-06-10T09:31:02;4.17;;;3.80;;
1925;SDS011;964;42.606;23.588;2023-06-10T09:33:30;3.77;;;3.47;;
1925;SDS011;964;42.606;23.588;2023-06-10T09:35:57;3.80;;;3.03;;
1925;SDS011;964;42.606;23.588;2023-06-10T09:38:31;4.40;;;3.67;;
1925;SDS011;964;42.606;23.588;2023-06-10T09:40:58;3.43;;;3.10;;
1925;SDS011;964;42.606;23.588;2023-06-10T09:43:38;3.73;;;3.30;;
1925;SDS011;964;42.606;23.588;2023-06-10T09:46:06;4.43;;;3.90;;
1925;SDS011;964;42.606;23.588;2023-06-10T09:48:40;4.03;;;2.93;;
1925;SDS011;964;42.606;23.588;2023-06-10T09:51:09;3.40;;;3.10;;
1925;SDS011;964;42.606;23.588;2023-06-10T09:53:37;3.90;;;3.40;;
1925;SDS011;964;42.606;23.588;2023-06-10T09:56:05;4.30;;;3.60;;
1925;SDS011;964;42.606;23.588;2023-06-10T09:58:35;4.13;;;3.83;;
1925;SDS011;964;42.606;23.588;2023-06-10T10:01:07;5.67;;;3.47;;
1925;SDS011;964;42.606;23.588;2023-06-10T10:03:42;3.43;;;3.17;;
1925;SDS011;964;42.606;23.588;2023-06-10T10:06:10;3.63;;;3.33;;
1925;SDS011;964;42.606;23.588;2023-06-10T10:08:39;4.37;;;3.40;;
1925;SDS011;964;42.606;23.588;2023-06-10T10:11:06;3.70;;;3.40;;
1925;SDS011;964;42.606;23.588;2023-06-10T10:13:33;2.97;;;2.77;;
1925;SDS011;964;42.606;23.588;2023-06-10T10:16:01;4.30;;;2.27;;
1925;SDS011;964;42.606;23.588;2023-06-10T10:18:32;2.93;;;2.73;;
1925;SDS011;964;42.606;23.588;2023-06-10T10:21:03;3.00;;;2.77;;
1925;SDS011;964;42.606;23.588;2023-06-10T10:23:34;2.77;;;2.57;;
1925;SDS011;964;42.606;23.588;2023-06-10T10:26:09;3.50;;;3.20;;
1925;SDS011;964;42.606;23.588;2023-06-10T10:28:39;3.40;;;3.10;;
1925;SDS011;964;42.606;23.588;2023-06-10T10:31:11;3.37;;;3.13;;
1925;SDS011;964;42.606;23.588;2023-06-10T10:33:45;3.17;;;2.80;;
1925;SDS011;964;42.606;23.588;2023-06-10T10:36:19;2.70;;;2.50;;
1925;SDS011;964;42.606;23.588;2023-06-10T10:38:46;3.20;;;3.00;;
1925;SDS011;964;42.606;23.588;2023-06-10T10:41:16;3.20;;;2.70;;
1925;SDS011;964;42.606;23.588;2023-06-10T10:43:44;4.30;;;2.73;;
1925;SDS011;964;42.606;23.588;2023-06-10T10:46:12;3.07;;;2.70;;
1925;SDS011;964;42.606;23.588;2023-06-10T10:48:40;2.97;;;2.77;;
1925;SDS011;964;42.606;23.588;2023-06-10T10:51:08;3.57;;;2.77;;
1925;SDS011;964;42.606;23.588;2023-06-10T10:53:36;4.20;;;2.70;;
1925;SDS011;964;42.606;23.588;2023-06-10T10:56:05;3.40;;;3.10;;
1925;SDS011;964;42.606;23.588;2023-06-10T10:58:34;4.07;;;3.22;;
1925;SDS011;964;42.606;23.588;2023-06-10T11:01:09;3.28;;;3.08;;
1925;SDS011;964;42.606;23.588;2023-06-10T11:03:42;4.00;;;3.20;;
1925;SDS011;964;42.606;23.588;2023-06-10T11:06:12;3.77;;;3.40;;
1925;SDS011;964;42.606;23.588;2023-06-10T11:08:47;5.20;;;3.40;;
1925;SDS011;964;42.606;23.588;2023-06-10T11:11:19;4.30;;;3.17;;
1925;SDS011;964;42.606;23.588;2023-06-10T11:14:07;4.60;;;3.50;;
1925;SDS011;964;42.606;23.588;2023-06-10T11:16:38;6.30;;;3.13;;
1925;SDS011;964;42.606;23.588;2023-06-10T11:19:07;2.83;;;2.60;;
1925;SDS011;964;42.606;23.588;2023-06-10T11:24:25;3.30;;;3.10;;
1925;SDS011;964;42.606;23.588;2023-06-10T11:26:52;5.93;;;3.57;;
1925;SDS011;964;42.606;23.588;2023-06-10T11:29:21;3.47;;;3.17;;
1925;SDS011;964;42.606;23.588;2023-06-10T11:31:51;3.43;;;3.10;;
1925;SDS011;964;42.606;23.588;2023-06-10T11:34:23;3.53;;;3.13;;
1925;SDS011;964;42.606;23.588;2023-06-10T11:36:52;3.27;;;3.07;;
1925;SDS011;964;42.606;23.588;2023-06-10T11:39:20;4.10;;;2.93;;
1925;SDS011;964;42.606;23.588;2023-06-10T11:41:49;3.27;;;2.90;;
1925;SDS011;964;42.606;23.588;2023-06-10T11:44:17;3.93;;;3.10;;
1925;SDS011;964;42.606;23.588;2023-06-10T11:46:46;3.10;;;2.80;;
1925;SDS011;964;42.606;23.588;2023-06-10T11:49:14;3.50;;;3.20;;
1925;SDS011;964;42.606;23.588;2023-06-10T11:51:43;3.33;;;3.03;;
1925;SDS011;964;42.606;23.588;2023-06-10T11:54:14;3.20;;;2.90;;
1925;SDS011;964;42.606;23.588;2023-06-10T11:56:42;3.30;;;3.00;;
1925;SDS011;964;42.606;23.588;2023-06-10T11:59:09;3.67;;;3.03;;
1925;SDS011;964;42.606;23.588;2023-06-10T12:01:36;3.50;;;2.83;;
1925;SDS011;964;42.606;23.588;2023-06-10T12:04:08;3.87;;;3.47;;
1925;SDS011;964;42.606;23.588;2023-06-10T12:06:40;3.33;;;3.07;;
1925;SDS011;964;42.606;23.588;2023-06-10T12:09:12;3.53;;;3.23;;
1925;SDS011;964;42.606;23.588;2023-06-10T12:11:44;3.63;;;3.33;;
1925;SDS011;964;42.606;23.588;2023-06-10T12:14:11;3.50;;;3.20;;
1925;SDS011;964;42.606;23.588;2023-06-10T12:16:38;4.47;;;4.07;;
1925;SDS011;964;42.606;23.588;2023-06-10T12:19:07;3.83;;;3.43;;
1925;SDS011;964;42.606;23.588;2023-06-10T12:21:36;3.90;;;3.60;;
1925;SDS011;964;42.606;23.588;2023-06-10T12:24:05;4.67;;;3.50;;
1925;SDS011;964;42.606;23.588;2023-06-10T12:26:40;3.80;;;3.50;;
1925;SDS011;964;42.606;23.588;2023-06-10T12:29:20;8.10;;;4.27;;
1925;SDS011;964;42.606;23.588;2023-06-10T12:31:53;3.80;;;3.50;;
1925;SDS011;964;42.606;23.588;2023-06-10T12:34:35;3.83;;;3.43;;
1925;SDS011;964;42.606;23.588;2023-06-10T12:37:03;4.23;;;2.90;;
1925;SDS011;964;42.606;23.588;2023-06-10T12:39:32;4.17;;;3.53;;
1925;SDS011;964;42.606;23.588;2023-06-10T12:41:59;3.87;;;3.37;;
1925;SDS011;964;42.606;23.588;2023-06-10T12:44:31;3.97;;;3.67;;
1925;SDS011;964;42.606;23.588;2023-06-10T12:46:59;3.40;;;3.10;;
1925;SDS011;964;42.606;23.588;2023-06-10T12:49:26;3.60;;;3.30;;
1925;SDS011;964;42.606;23.588;2023-06-10T12:51:54;5.20;;;3.87;;
1925;SDS011;964;42.606;23.588;2023-06-10T12:54:21;4.30;;;3.10;;
1925;SDS011;964;42.606;23.588;2023-06-10T12:56:48;3.40;;;3.10;;
1925;SDS011;964;42.606;23.588;2023-06-10T12:59:15;3.80;;;3.33;;
1925;SDS011;964;42.606;23.588;2023-06-10T13:01:42;3.40;;;3.10;;
1925;SDS011;964;42.606;23.588;2023-06-10T13:04:09;4.93;;;3.13;;
1925;SDS011;964;42.606;23.588;2023-06-10T13:06:36;5.13;;;3.87;;
1925;SDS011;964;42.606;23.588;2023-06-10T13:09:06;3.20;;;2.90;;
1925;SDS011;964;42.606;23.588;2023-06-10T13:11:33;3.40;;;3.10;;
1925;SDS011;964;42.606;23.588;2023-06-10T13:14:01;3.60;;;2.90;;
1925;SDS011;964;42.606;23.588;2023-06-10T13:16:29;3.33;;;3.03;;
1925;SDS011;964;42.606;23.588;2023-06-10T13:18:57;4.00;;;2.90;;
1925;SDS011;964;42.606;23.588;2023-06-10T13:21:23;3.80;;;2.93;;
1925;SDS011;964;42.606;23.588;2023-06-10T13:23:50;3.47;;;3.17;;
1925;SDS011;964;42.606;23.588;2023-06-10T13:26:19;2.80;;;2.60;;
1925;SDS011;964;42.606;23.588;2023-06-10T13:28:46;4.97;;;3.37;;
1925;SDS011;964;42.606;23.588;2023-06-10T13:31:12;3.50;;;3.20;;
1925;SDS011;964;42.606;23.588;2023-06-10T13:33:39;3.53;;;3.23;;
1925;SDS011;964;42.606;23.588;2023-06-10T13:36:08;3.03;;;2.80;;
1925;SDS011;964;42.606;23.588;2023-06-10T13:38:35;3.30;;;3.00;;
1925;SDS011;964;42.606;23.588;2023-06-10T13:41:02;3.50;;;3.20;;
1925;SDS011;964;42.606;23.588;2023-06-10T13:43:30;3.13;;;2.83;;
1925;SDS011;964;42.606;23.588;2023-06-10T13:45:57;2.90;;;2.70;;
1925;SDS011;964;42.606;23.588;2023-06-10T13:48:24;3.27;;;2.97;;
1925;SDS011;964;42.606;23.588;2023-06-10T13:50:51;3.40;;;3.07;;
1925;SDS011;964;42.606;23.588;2023-06-10T13:53:18;2.87;;;2.67;;
1925;SDS011;964;42.606;23.588;2023-06-10T13:55:44;3.77;;;3.00;;
1925;SDS011;964;42.606;23.588;2023-06-10T13:58:11;4.77;;;3.47;;
1925;SDS011;964;42.606;23.588;2023-06-10T14:00:40;5.00;;;3.60;;
1925;SDS011;964;42.606;23.588;2023-06-10T14:03:07;4.40;;;3.93;;
1925;SDS011;964;42.606;23.588;2023-06-10T14:05:33;4.33;;;3.90;;
1925;SDS011;964;42.606;23.588;2023-06-10T14:08:00;5.00;;;3.37;;
1925;SDS011;964;42.606;23.588;2023-06-10T14:10:28;4.00;;;3.70;;
1925;SDS011;964;42.606;23.588;2023-06-10T14:12:54;6.30;;;3.73;;
1925;SDS011;964;42.606;23.588;2023-06-10T14:15:21;4.23;;;3.63;;
1925;SDS011;964;42.606;23.588;2023-06-10T14:17:49;4.50;;;3.57;;
1925;SDS011;964;42.606;23.588;2023-06-10T14:20:16;4.93;;;4.27;;
1925;SDS011;964;42.606;23.588;2023-06-10T14:22:43;4.60;;;3.77;;
1925;SDS011;964;42.606;23.588;2023-06-10T14:25:10;5.37;;;3.80;;
1925;SDS011;964;42.606;23.588;2023-06-10T14:27:37;5.37;;;3.50;;
1925;SDS011;964;42.606;23.588;2023-06-10T14:30:04;6.10;;;4.07;;
1925;SDS011;964;42.606;23.588;2023-06-10T14:32:32;5.03;;;3.77;;
1925;SDS011;964;42.606;23.588;2023-06-10T14:35:00;4.00;;;3.40;;
1925;SDS011;964;42.606;23.588;2023-06-10T14:37:28;5.47;;;4.07;;
1925;SDS011;964;42.606;23.588;2023-06-10T14:39:54;6.17;;;5.07;;
1925;SDS011;964;42.606;23.588;2023-06-10T14:42:21;6.63;;;4.97;;
1925;SDS011;964;42.606;23.588;2023-06-10T14:44:49;6.67;;;4.97;;
1925;SDS011;964;42.606;23.588;2023-06-10T14:47:16;10.40;;;4.47;;
1925;SDS011;964;42.606;23.588;2023-06-10T14:49:43;5.97;;;4.57;;
1925;SDS011;964;42.606;23.588;2023-06-10T14:52:11;5.00;;;4.50;;
1925;SDS011;964;42.606;23.588;2023-06-10T14:54:38;12.33;;;5.67;;
1925;SDS011;964;42.606;23.588;2023-06-10T14:57:05;14.57;;;9.73;;
1925;SDS011;964;42.606;23.588;2023-06-10T14:59:32;8.60;;;6.93;;
1925;SDS011;964;42.606;23.588;2023-06-10T15:02:00;10.93;;;9.30;;
1925;SDS011;964;42.606;23.588;2023-06-10T15:04:27;10.73;;;8.93;;
1925;SDS011;964;42.606;23.588;2023-06-10T15:06:54;6.87;;;4.80;;
1925;SDS011;964;42.606;23.588;2023-06-10T15:09:22;7.17;;;5.57;;
1925;SDS011;964;42.606;23.588;2023-06-10T15:11:49;16.70;;;9.47;;
1925;SDS011;964;42.606;23.588;2023-06-10T15:14:15;8.97;;;6.10;;